Terminal Aerodrome Forecast
Issued by NWS

Home | Current Version | Previous Version | Text Only | Print | Product List | Glossary On
Versions: 1 2 3 4 5 6 7 8 9 10 11 12 13 14 15 16 17 18 19 20 21
000
FTUS46 KMTR 281100
TAFSNS
TAF
KSNS 281121Z 2812/2912 VRB03KT 4SM BR OVC004
     FM281600 29004KT P6SM BKN007
     FM281800 29008KT P6SM SCT200
     FM282100 27015G20KT P6SM SCT200
     FM290300 28009KT P6SM FEW009
     FM290800 VRB03KT P6SM SKC=

USA.gov is the U.S. government's official web portal to all federal, state and local government web resources and services.